Time;durP1;ratioP1;P1;durP2;ratioP2;P2;SDS_P1;SDS_P2;PMS_P1;PMS_P2;Temp;Humidity;BMP_temperature;BMP_pressure;BME280_temperature;BME280_humidity;BME280_pressure;Samples;Min_cycle;Max_cycle;Signal;HPM_P1;HPM_P2
2022/07/06 00:04:36;;;;;;;4.32;1.90;;;;;;;18.41;68.00;100970.72;20911217;28;20050;-70
2022/07/06 00:14:38;;;;;;;5.60;2.20;;;;;;;18.30;68.87;100970.25;20911221;28;20060;-71
2022/07/06 00:24:39;;;;;;;4.78;2.20;;;;;;;18.18;70.78;100980.41;20911192;28;20473;-71
2022/07/06 00:34:41;;;;;;;5.13;2.20;;;;;;;18.06;71.77;100983.56;20909194;28;20052;-71
2022/07/06 00:44:42;;;;;;;6.50;2.40;;;;;;;17.99;72.79;100997.94;20908236;28;20052;-69
2022/07/06 00:54:45;;;;;;;5.07;2.30;;;;;;;17.63;77.72;101000.06;20907972;28;20049;-68
2022/07/06 01:04:46;;;;;;;4.97;2.25;;;;;;;17.53;79.81;100988.09;20906518;28;20049;-66
2022/07/06 01:14:48;;;;;;;5.05;2.47;;;;;;;17.17;83.57;100999.03;20906282;28;20044;-66
2022/07/06 01:24:49;;;;;;;6.28;3.35;;;;;;;17.08;85.57;100986.97;20905156;28;20045;-66
2022/07/06 01:34:51;;;;;;;5.20;2.70;;;;;;;17.04;86.75;100982.69;20904604;28;20049;-67
2022/07/06 01:44:53;;;;;;;5.50;2.92;;;;;;;16.89;88.57;100991.13;20904186;28;20446;-67
2022/07/06 01:54:58;;;;;;;5.72;2.88;;;;;;;16.93;88.62;100992.75;20902442;28;20053;-67
2022/07/06 02:05:00;;;;;;;5.30;2.88;;;;;;;16.67;92.04;100997.09;20902235;28;20051;-67
2022/07/06 02:15:01;;;;;;;6.75;3.47;;;;;;;16.64;92.30;100994.53;20901607;28;20053;-67
2022/07/06 02:25:04;;;;;;;6.72;3.05;;;;;;;16.48;94.14;100992.38;20900913;28;20051;-66
2022/07/06 02:35:05;;;;;;;4.75;2.70;;;;;;;16.41;96.35;100994.38;20901106;28;20497;-67
2022/07/06 02:45:08;;;;;;;8.10;3.10;;;;;;;16.26;97.00;101006.25;20900770;28;20072;-68
2022/07/06 02:55:09;;;;;;;7.18;3.17;;;;;;;16.04;100.00;101011.28;20899838;28;20056;-67
2022/07/06 03:05:11;;;;;;;4.63;2.88;;;;;;;15.98;100.00;101019.38;20905251;28;20053;-67
2022/07/06 03:15:13;;;;;;;8.38;3.13;;;;;;;15.89;100.00;101039.00;20915315;28;20509;-67
2022/07/06 03:25:14;;;;;;;6.85;3.15;;;;;;;15.86;100.00;101041.75;20915056;28;20044;-68
2022/07/06 03:35:16;;;;;;;5.78;2.92;;;;;;;15.84;100.00;101053.25;20913996;28;20060;-67
2022/07/06 03:45:17;;;;;;;5.15;2.83;;;;;;;15.89;100.00;101051.34;20913524;28;20079;-66
2022/07/06 03:55:18;;;;;;;6.35;2.92;;;;;;;15.94;100.00;101052.06;20913019;28;20093;-67
2022/07/06 04:05:21;;;;;;;7.38;3.28;;;;;;;15.73;100.00;101052.66;20910128;28;20045;-67
2022/07/06 04:15:22;;;;;;;6.43;3.20;;;;;;;15.61;100.00;101065.22;20857287;28;20045;-67
2022/07/06 04:25:24;;;;;;;6.20;3.30;;;;;;;15.95;100.00;101069.66;20828288;28;20050;-66
2022/07/06 04:35:26;;;;;;;10.40;3.80;;;;;;;16.39;100.00;101075.50;20826756;28;20041;-67
2022/07/06 04:45:28;;;;;;;8.02;3.40;;;;;;;17.73;91.34;101083.66;20826721;28;20062;-66
2022/07/06 04:55:29;;;;;;;8.43;3.03;;;;;;;18.03;85.64;101079.03;20825867;28;20053;-67
2022/07/06 05:05:31;;;;;;;6.18;2.65;;;;;;;17.71;85.69;101088.06;20824590;28;20046;-66
2022/07/06 05:15:32;;;;;;;4.88;2.80;;;;;;;17.46;86.68;101098.63;20824136;28;20077;-67
2022/07/06 05:25:35;;;;;;;6.55;2.88;;;;;;;17.50;87.43;101100.28;20823334;28;20060;-67
2022/07/06 05:35:37;;;;;;;7.75;2.72;;;;;;;17.47;85.42;101108.31;20821686;28;20053;-71
2022/07/06 05:45:52;;;;;;;7.25;2.28;;;;;;;17.60;80.51;101107.00;20821816;28;20049;-69
2022/07/06 05:55:53;;;;;;;6.47;2.83;;;;;;;17.52;80.26;101109.03;20821385;28;20049;-68
2022/07/06 06:05:55;;;;;;;6.60;2.22;;;;;;;17.68;79.43;101112.91;20819875;28;20057;-67
2022/07/06 06:15:56;;;;;;;6.38;2.53;;;;;;;17.51;77.54;101133.78;20819438;28;20050;-66
2022/07/06 06:25:58;;;;;;;10.63;2.72;;;;;;;17.61;78.01;101124.59;20819193;28;20084;-66
2022/07/06 06:35:59;;;;;;;9.63;2.65;;;;;;;17.72;74.15;101132.19;20817789;28;20060;-66
2022/07/06 06:46:01;;;;;;;6.45;2.60;;;;;;;17.62;73.36;101134.28;20906684;28;20059;-66
2022/07/06 06:56:02;;;;;;;11.68;2.30;;;;;;;17.82;71.68;101140.72;20982466;28;20048;-66
2022/07/06 07:06:04;;;;;;;7.28;2.35;;;;;;;17.78;72.63;101136.47;20950069;28;20045;-67
2022/07/06 07:16:06;;;;;;;8.40;2.63;;;;;;;17.99;71.35;101150.75;20929139;28;20060;-67
2022/07/06 07:26:08;;;;;;;4.05;2.00;;;;;;;18.11;69.83;101151.19;20917873;28;20059;-67
2022/07/06 07:36:09;;;;;;;5.80;2.30;;;;;;;18.20;68.50;101140.28;20909608;28;20058;-68
2022/07/06 07:46:11;;;;;;;11.13;2.42;;;;;;;18.31;67.09;101141.69;20950020;28;20079;-68
2022/07/06 07:56:12;;;;;;;9.52;3.15;;;;;;;18.27;65.71;101134.75;20983441;28;20139;-69
2022/07/06 08:06:14;;;;;;;8.38;2.75;;;;;;;18.87;62.80;101130.75;20986267;28;20051;-68
2022/07/06 08:16:16;;;;;;;7.90;2.53;;;;;;;19.04;63.47;101138.94;20929955;28;20053;-71
2022/07/06 08:26:17;;;;;;;6.72;2.60;;;;;;;19.29;60.32;101132.66;20902983;28;20056;-70
2022/07/06 08:36:20;;;;;;;11.90;2.50;;;;;;;19.21;60.63;101131.19;20901584;28;20048;-68
2022/07/06 08:46:22;;;;;;;9.63;2.50;;;;;;;19.73;59.34;101123.75;20901225;28;20041;-69
2022/07/06 08:56:24;;;;;;;7.95;2.70;;;;;;;19.61;58.16;101132.25;20901029;28;20274;-71
2022/07/06 09:06:26;;;;;;;6.25;2.53;;;;;;;19.67;58.72;101139.09;20899871;28;20060;-70
2022/07/06 09:16:29;;;;;;;6.00;2.40;;;;;;;20.04;56.60;101140.19;20957357;28;20059;-71
2022/07/06 09:26:41;;;;;;;7.13;2.25;;;;;;;20.56;54.84;101138.78;20981170;28;20049;-71
2022/07/06 09:36:45;;;;;;;6.15;2.55;;;;;;;21.35;54.35;101130.66;20979508;28;20420;-71
2022/07/06 09:46:47;;;;;;;7.13;2.80;;;;;;;20.74;54.34;101127.31;20979672;28;20059;-71
2022/07/06 09:56:51;;;;;;;8.15;2.67;;;;;;;21.24;52.58;101133.81;20979030;28;20052;-74
2022/07/06 10:06:54;;;;;;;6.50;2.25;;;;;;;21.36;52.07;101133.25;20976868;28;20467;-72
2022/07/06 10:16:58;;;;;;;9.90;2.20;;;;;;;22.26;49.32;101131.34;20914323;28;20052;-68
2022/07/06 10:26:59;;;;;;;6.10;2.30;;;;;;;21.98;51.16;101142.56;20893441;28;20063;-69
2022/07/06 10:37:02;;;;;;;6.95;2.28;;;;;;;21.57;52.11;101143.81;20892012;28;20068;-68
2022/07/06 10:47:03;;;;;;;7.07;2.50;;;;;;;22.68;47.20;101132.66;20892831;28;20141;-69
2022/07/06 10:57:09;;;;;;;3.70;1.50;;;;;;;22.65;47.67;101132.81;20891987;28;20453;-70
2022/07/06 11:07:14;;;;;;;8.48;2.00;;;;;;;22.65;46.78;101126.63;20892351;28;20045;-70
2022/07/06 11:17:15;;;;;;;;;;;;;;;22.28;49.64;101118.81;20957475;28;20144;-70
2022/07/06 11:27:17;;;;;;;8.23;2.22;;;;;;;22.22;48.87;101112.91;20928338;28;20006;-71
2022/07/06 11:37:20;;;;;;;5.40;1.90;;;;;;;23.14;46.41;101108.78;20906003;28;20404;-70
2022/07/06 11:47:30;;;;;;;3.90;1.55;;;;;;;22.64;45.31;101088.41;20905829;28;20056;-70
2022/07/06 11:57:32;;;;;;;4.32;1.58;;;;;;;23.87;43.85;101076.91;20905018;28;20064;-71
2022/07/06 12:07:34;;;;;;;6.75;1.70;;;;;;;22.58;45.77;101082.53;20903743;28;20416;-70
2022/07/06 12:17:36;;;;;;;6.53;1.60;;;;;;;22.96;42.73;101072.44;20970662;28;20059;-75
2022/07/06 12:27:37;;;;;;;3.95;1.65;;;;;;;23.27;42.91;101052.81;20985717;28;20048;-71
2022/07/06 12:37:54;;;;;;;4.22;1.50;;;;;;;22.90;40.96;101044.28;20984265;28;20052;-71
2022/07/06 12:48:05;;;;;;;5.07;1.30;;;;;;;22.84;41.99;101044.56;20984646;28;20139;-73
2022/07/06 12:58:18;;;;;;;4.05;1.38;;;;;;;22.86;41.55;101039.16;20983337;28;20044;-69
2022/07/06 13:08:20;;;;;;;6.20;1.33;;;;;;;23.18;39.85;101034.63;20982043;28;20048;-69
2022/07/06 13:18:21;;;;;;;4.47;1.60;;;;;;;23.52;37.49;101010.34;20905387;28;20486;-69
2022/07/06 13:28:23;;;;;;;4.65;1.42;;;;;;;23.63;36.23;101020.38;20898158;28;20053;-69
2022/07/06 13:38:25;;;;;;;4.82;1.30;;;;;;;23.66;35.77;101006.84;20894110;28;20053;-70
2022/07/06 13:48:26;;;;;;;4.28;1.30;;;;;;;23.45;36.43;101000.94;20894881;28;20481;-69
2022/07/06 13:58:28;;;;;;;4.32;1.10;;;;;;;24.18;33.75;100984.88;20893760;28;20045;-67
2022/07/06 14:08:30;;;;;;;3.45;1.48;;;;;;;24.41;32.85;100964.72;20892389;28;20041;-67
2022/07/06 14:18:32;;;;;;;2.28;1.10;;;;;;;23.96;33.36;100968.50;20969544;28;20489;-68
2022/07/06 14:28:34;;;;;;;5.65;1.30;;;;;;;24.06;32.35;100969.63;20955535;28;20045;-67
2022/07/06 14:38:35;;;;;;;3.60;1.00;;;;;;;24.27;32.44;100962.03;20890966;28;20076;-69
2022/07/06 14:48:37;;;;;;;1.88;1.00;;;;;;;24.65;32.17;100951.56;20891480;28;20037;-66
2022/07/06 14:58:38;;;;;;;3.92;1.70;;;;;;;24.27;34.08;100954.88;20893255;28;20044;-68
2022/07/06 15:08:53;;;;;;;4.70;1.92;;;;;;;23.79;34.64;100935.63;20908635;28;20486;-69
2022/07/06 15:18:55;;;;;;;5.63;1.60;;;;;;;23.81;32.97;100927.50;20987617;28;20056;-69
2022/07/06 15:28:57;;;;;;;5.07;1.70;;;;;;;23.82;34.10;100926.56;20990287;28;20048;-69
2022/07/06 15:38:59;;;;;;;4.00;1.50;;;;;;;23.39;33.87;100933.66;20989204;28;20466;-70
2022/07/06 15:49:02;;;;;;;3.65;1.25;;;;;;;23.46;34.27;100919.81;20988170;28;20497;-69
2022/07/06 15:59:03;;;;;;;3.80;1.50;;;;;;;23.55;33.93;100910.38;20988326;28;20044;-69
2022/07/06 16:09:05;;;;;;;3.75;1.38;;;;;;;23.27;35.01;100919.22;20987134;28;20060;-71
2022/07/06 16:19:06;;;;;;;5.47;1.33;;;;;;;22.97;36.14;100913.91;20906068;28;20045;-69
2022/07/06 16:29:08;;;;;;;5.40;1.30;;;;;;;23.00;35.97;100913.72;20902141;28;20049;-70
2022/07/06 16:39:10;;;;;;;5.30;1.20;;;;;;;23.12;35.87;100906.78;20901492;28;20053;-67
2022/07/06 16:49:12;;;;;;;6.10;1.20;;;;;;;22.93;36.43;100917.69;20901374;28;20049;-67
2022/07/06 16:59:13;;;;;;;3.55;1.02;;;;;;;22.84;37.08;100923.53;20891793;28;20502;-67
2022/07/06 17:09:15;;;;;;;4.10;1.30;;;;;;;22.13;38.78;100938.22;20899233;28;20493;-70
2022/07/06 17:19:16;;;;;;;4.50;0.90;;;;;;;22.12;39.10;100936.50;20934792;28;20048;-69
2022/07/06 17:29:20;;;;;;;4.22;0.88;;;;;;;22.11;39.92;100942.78;20896995;28;20041;-72
2022/07/06 17:39:21;;;;;;;6.90;1.27;;;;;;;21.91;39.48;100943.84;20895052;28;20452;-69
2022/07/06 17:49:23;;;;;;;2.40;0.80;;;;;;;21.88;39.49;100951.16;20894951;28;20045;-70
2022/07/06 17:59:24;;;;;;;3.25;0.80;;;;;;;21.94;38.91;100949.03;20885604;28;20049;-69
2022/07/06 18:09:26;;;;;;;4.25;0.90;;;;;;;21.65;40.13;100958.56;20888211;28;20091;-70
2022/07/06 18:19:28;;;;;;;1.88;0.80;;;;;;;21.82;39.78;100955.00;20890426;28;20422;-69
2022/07/06 18:29:29;;;;;;;3.67;0.70;;;;;;;21.69;40.72;100973.44;20888351;28;20139;-70
2022/07/06 18:39:31;;;;;;;3.72;0.80;;;;;;;21.42;40.47;100964.25;20890716;28;20454;-69
2022/07/06 18:49:32;;;;;;;3.58;0.90;;;;;;;21.09;41.96;100980.97;20890233;28;20110;-70
2022/07/06 18:59:34;;;;;;;2.40;0.80;;;;;;;20.67;44.13;100979.50;20890621;28;20657;-68
2022/07/06 19:09:43;;;;;;;1.40;0.80;;;;;;;20.35;45.40;100988.09;20892463;28;20064;-68
2022/07/06 19:19:44;;;;;;;3.95;0.95;;;;;;;19.89;46.77;100995.56;20972998;28;20056;-70
2022/07/06 19:29:47;;;;;;;3.97;0.90;;;;;;;19.53;48.37;101004.16;20972931;28;20049;-69
2022/07/06 19:39:55;;;;;;;3.58;1.33;;;;;;;19.27;49.22;101007.94;20900783;28;20053;-72
2022/07/06 19:49:56;;;;;;;2.92;1.00;;;;;;;19.05;50.21;101018.56;20896904;28;20055;-68
2022/07/06 19:59:58;;;;;;;4.03;1.20;;;;;;;18.92;52.25;101023.53;20904999;28;20481;-70
2022/07/06 20:09:59;;;;;;;1.73;1.05;;;;;;;18.40;55.97;101019.38;20903423;28;20051;-67
2022/07/06 20:20:01;;;;;;;3.10;1.27;;;;;;;18.22;58.75;101017.41;20899773;28;20052;-68
2022/07/06 20:30:04;;;;;;;2.70;1.00;;;;;;;18.00;60.26;101026.16;20900751;28;20049;-68
2022/07/06 20:40:06;;;;;;;2.55;0.90;;;;;;;17.81;63.16;101038.31;20901081;28;20060;-70
2022/07/06 20:50:09;;;;;;;4.38;1.25;;;;;;;17.73;63.98;101048.31;20900312;28;20045;-68
2022/07/06 21:00:12;;;;;;;2.65;1.05;;;;;;;17.21;66.00;101044.78;20898665;28;20064;-68
2022/07/06 21:10:13;;;;;;;2.13;1.10;;;;;;;17.15;66.39;101041.44;20905148;28;20048;-69
2022/07/06 21:20:15;;;;;;;2.55;1.23;;;;;;;16.92;69.63;101057.16;20981112;28;20915;-68
2022/07/06 21:30:16;;;;;;;2.38;1.15;;;;;;;16.85;70.80;101043.25;20979028;28;20041;-68
2022/07/06 21:40:18;;;;;;;3.05;1.25;;;;;;;16.77;73.24;101044.41;20979058;28;20463;-68
2022/07/06 21:50:19;;;;;;;5.57;1.73;;;;;;;16.54;75.45;101037.16;20919295;28;20052;-67
2022/07/06 22:00:21;;;;;;;3.40;1.27;;;;;;;16.30;76.70;101033.47;20894209;28;20438;-68
2022/07/06 22:10:23;;;;;;;6.68;1.80;;;;;;;16.01;76.60;101029.88;20897892;28;20048;-68
2022/07/06 22:20:24;;;;;;;4.55;1.50;;;;;;;15.76;79.66;101032.34;20902037;28;20045;-68
2022/07/06 22:30:26;;;;;;;7.35;1.20;;;;;;;15.57;80.73;101031.94;20900508;28;20044;-68
2022/07/06 22:50:48;;;;;;;4.13;1.80;;;;;;;15.57;83.02;101028.38;20899434;28;20069;-68
2022/07/06 23:00:49;;;;;;;6.70;1.80;;;;;;;15.43;84.40;101027.88;20856282;28;20498;-68
2022/07/06 23:10:52;;;;;;;5.90;1.90;;;;;;;15.39;86.06;101013.94;20817509;28;20064;-67
2022/07/06 23:20:53;;;;;;;3.35;1.50;;;;;;;15.60;85.00;101016.00;20820870;28;20716;-68
2022/07/06 23:30:55;;;;;;;6.70;2.00;;;;;;;15.81;85.35;101018.97;20831973;28;20045;-68
2022/07/06 23:40:56;;;;;;;3.60;1.60;;;;;;;15.83;83.72;101017.19;20830974;28;20054;-68
2022/07/06 23:50:58;;;;;;;6.72;1.73;;;;;;;15.60;88.08;101009.84;20831620;28;20055;-68
